createdAt,value
2017-03-25T00:00:05.196Z,0
2017-03-25T00:01:05.525Z,0
2017-03-25T00:02:20.147Z,0
2017-03-25T00:03:05.551Z,0
2017-03-25T00:04:05.566Z,0
2017-03-25T00:05:05.589Z,0
2017-03-25T00:07:05.318Z,0
2017-03-25T00:08:05.639Z,0
2017-03-25T00:09:19.968Z,0
2017-03-25T00:10:20.291Z,0
2017-03-25T00:11:05.695Z,0
2017-03-25T00:13:05.731Z,0
2017-03-25T00:14:05.746Z,0
2017-03-25T00:15:05.768Z,0
2017-03-25T00:17:05.802Z,0
2017-03-25T00:18:20.435Z,0
2017-03-25T00:19:05.836Z,0
2017-03-25T00:20:05.853Z,0
2017-03-25T00:21:05.880Z,0
2017-03-25T00:22:20.203Z,0
2017-03-25T00:23:05.607Z,0
2017-03-25T00:24:20.543Z,0
2017-03-25T00:25:05.947Z,0
2017-03-25T00:26:05.962Z,0
2017-03-25T00:27:05.981Z,0
2017-03-25T00:29:06.015Z,0
2017-03-25T00:30:06.037Z,0
2017-03-25T00:31:06.053Z,0
2017-03-25T00:32:05.767Z,0
2017-03-25T00:33:06.093Z,0
2017-03-25T00:34:06.106Z,0
2017-03-25T00:35:05.823Z,0
2017-03-25T00:36:06.141Z,0
2017-03-25T00:37:06.158Z,0
2017-03-25T00:38:06.178Z,0
2017-03-25T00:39:06.201Z,0
2017-03-25T00:40:20.830Z,0
2017-03-25T00:41:05.929Z,0
2017-03-25T00:43:06.292Z,0
2017-03-25T00:45:06.300Z,0
2017-03-25T00:46:06.320Z,0
2017-03-25T00:47:20.959Z,0
2017-03-25T00:48:06.358Z,0
2017-03-25T00:49:21.031Z,0
2017-03-25T00:50:06.391Z,0
2017-03-25T00:51:06.109Z,0
2017-03-25T00:53:06.490Z,0
2017-03-25T00:54:06.464Z,0
2017-03-25T00:55:06.492Z,0
2017-03-25T00:56:20.807Z,0
2017-03-25T00:57:06.520Z,0
2017-03-25T00:58:21.146Z,0
2017-03-25T00:59:06.549Z,0
2017-03-25T01:00:06.566Z,0
2017-03-25T01:01:06.596Z,0
2017-03-25T01:02:06.607Z,0
2017-03-25T01:03:06.621Z,0
2017-03-25T01:04:06.640Z,0
2017-03-25T01:05:21.275Z,0
2017-03-25T01:06:06.678Z,0
2017-03-25T01:07:06.388Z,0
2017-03-25T01:08:35.639Z,0
2017-03-25T01:09:06.724Z,0
2017-03-25T01:10:21.359Z,0
2017-03-25T01:11:06.761Z,0
2017-03-25T01:12:21.399Z,0
2017-03-25T01:13:21.413Z,0
2017-03-25T01:14:06.816Z,0
2017-03-25T01:15:06.832Z,0
2017-03-25T01:16:06.860Z,0
2017-03-25T01:17:06.866Z,0
2017-03-25T01:18:06.890Z,0
2017-03-25T01:19:06.904Z,0
2017-03-25T01:20:06.921Z,0
2017-03-25T01:21:06.947Z,0
2017-03-25T01:22:06.957Z,0
2017-03-25T01:23:21.589Z,0
2017-03-25T01:24:36.222Z,0
2017-03-25T01:25:21.622Z,0
2017-03-25T01:26:07.025Z,0
2017-03-25T01:27:07.046Z,0
2017-03-25T01:28:21.373Z,0
2017-03-25T01:29:21.722Z,0
2017-03-25T01:30:07.102Z,0
2017-03-25T01:31:07.113Z,0
2017-03-25T01:32:07.127Z,0
2017-03-25T01:33:07.147Z,0
2017-03-25T01:34:07.170Z,0
2017-03-25T01:35:21.807Z,0
2017-03-25T01:36:21.822Z,0
2017-03-25T01:37:07.222Z,0
2017-03-25T01:38:07.238Z,0
2017-03-25T01:39:07.453Z,0
2017-03-25T01:40:07.271Z,0
2017-03-25T01:41:21.903Z,0
2017-03-25T01:42:07.310Z,0
2017-03-25T01:43:21.943Z,0
2017-03-25T01:44:21.963Z,0
2017-03-25T01:45:21.982Z,0
2017-03-25T01:46:07.381Z,0
2017-03-25T01:47:07.395Z,0
2017-03-25T01:48:07.407Z,0
2017-03-25T01:49:07.430Z,0
2017-03-25T01:50:22.063Z,0
2017-03-25T01:51:07.462Z,0
2017-03-25T01:52:07.484Z,0
2017-03-25T01:53:21.807Z,0
2017-03-25T01:54:07.515Z,0
2017-03-25T01:55:07.232Z,0
2017-03-25T01:56:07.552Z,0
2017-03-25T01:57:07.570Z,0
2017-03-25T01:58:07.583Z,0
2017-03-25T01:59:22.221Z,0
2017-03-25T02:00:07.623Z,0
2017-03-25T02:01:07.636Z,0
2017-03-25T02:02:07.655Z,0
2017-03-25T02:03:07.670Z,0
2017-03-25T02:04:07.692Z,0
2017-03-25T02:05:07.405Z,0
2017-03-25T02:06:22.341Z,0
2017-03-25T02:07:07.743Z,0
2017-03-25T02:08:07.756Z,0
2017-03-25T02:09:22.403Z,0
2017-03-25T02:10:22.104Z,0
2017-03-25T02:11:07.808Z,0
2017-03-25T02:12:07.829Z,0
2017-03-25T02:13:07.846Z,0
2017-03-25T02:14:07.562Z,0
2017-03-25T02:15:07.883Z,0
2017-03-25T02:16:07.598Z,0
2017-03-25T02:17:07.916Z,0
2017-03-25T02:19:07.953Z,0
2017-03-25T02:20:07.666Z,0
2017-03-25T02:21:07.984Z,0
2017-03-25T02:22:08.019Z,0
2017-03-25T02:23:07.714Z,0
2017-03-25T02:24:08.034Z,0
2017-03-25T02:25:08.057Z,0
2017-03-25T02:26:08.075Z,0
2017-03-25T02:27:07.784Z,0
2017-03-25T02:28:08.146Z,0
2017-03-25T02:29:08.123Z,0
2017-03-25T02:30:07.844Z,0
2017-03-25T02:31:22.772Z,0
2017-03-25T02:33:07.898Z,0
2017-03-25T02:34:08.208Z,0
2017-03-25T02:36:08.248Z,0
2017-03-25T02:39:08.296Z,0
2017-03-25T02:40:22.927Z,0
2017-03-25T02:41:08.328Z,0
2017-03-25T02:42:22.959Z,0
2017-03-25T02:43:08.366Z,0
2017-03-25T02:44:08.383Z,0
2017-03-25T02:45:37.627Z,0
2017-03-25T02:46:08.415Z,0
2017-03-25T02:47:23.047Z,0
2017-03-25T02:48:23.073Z,0
2017-03-25T02:49:08.466Z,0
2017-03-25T02:50:08.484Z,0
2017-03-25T02:51:08.505Z,0
2017-03-25T02:52:08.220Z,0
2017-03-25T02:53:08.544Z,0
2017-03-25T02:54:08.258Z,0
2017-03-25T02:55:08.576Z,0
2017-03-25T02:56:23.202Z,0
2017-03-25T02:57:23.225Z,0
2017-03-25T02:59:08.644Z,0
2017-03-25T03:00:08.357Z,0
2017-03-25T03:01:08.678Z,0
2017-03-25T03:02:08.694Z,0
2017-03-25T03:03:23.031Z,0
2017-03-25T03:04:08.731Z,0
2017-03-25T03:05:08.753Z,0
2017-03-25T03:06:08.803Z,0
2017-03-25T03:07:08.174Z,0
2017-03-25T03:08:23.422Z,0
2017-03-25T03:09:08.823Z,0
2017-03-25T03:10:08.529Z,0
2017-03-25T03:11:08.846Z,0
2017-03-25T03:12:08.871Z,0
2017-03-25T03:13:08.882Z,0
2017-03-25T03:14:23.517Z,0
2017-03-25T03:15:08.921Z,0
2017-03-25T03:16:23.548Z,0
2017-03-25T03:17:08.953Z,0
2017-03-25T03:19:23.603Z,0
2017-03-25T03:20:08.707Z,0
2017-03-25T03:21:09.016Z,0
2017-03-25T03:22:09.092Z,0
2017-03-25T03:24:09.075Z,0
2017-03-25T03:25:09.089Z,0
2017-03-25T03:26:23.721Z,0
2017-03-25T03:27:09.128Z,0
2017-03-25T03:28:09.145Z,0
2017-03-25T03:29:09.161Z,0
2017-03-25T03:30:23.792Z,0
2017-03-25T03:31:09.193Z,0
2017-03-25T03:32:23.822Z,0
2017-03-25T03:33:09.227Z,0
2017-03-25T03:35:08.958Z,0
2017-03-25T03:36:08.974Z,0
2017-03-25T03:37:08.997Z,0
2017-03-25T03:38:09.326Z,0
2017-03-25T03:39:23.949Z,0
2017-03-25T03:40:23.969Z,0
2017-03-25T03:41:09.364Z,0
2017-03-25T03:42:09.386Z,0
2017-03-25T03:43:09.427Z,0
2017-03-25T03:45:24.051Z,0
2017-03-25T03:47:09.165Z,0
2017-03-25T03:48:09.185Z,0
2017-03-25T03:50:09.520Z,0
2017-03-25T03:51:09.534Z,0
2017-03-25T03:52:09.562Z,0
2017-03-25T03:54:09.590Z,0
2017-03-25T03:55:09.607Z,0
2017-03-25T03:56:23.936Z,0
2017-03-25T03:57:09.643Z,0
2017-03-25T03:58:09.666Z,0
2017-03-25T03:59:09.670Z,0
2017-03-25T04:00:09.693Z,0
2017-03-25T04:01:24.326Z,0
2017-03-25T04:02:09.424Z,0
2017-03-25T04:03:09.445Z,0
2017-03-25T04:04:09.159Z,0
2017-03-25T04:05:24.088Z,0
2017-03-25T04:06:24.412Z,0
2017-03-25T04:07:09.820Z,0
2017-03-25T04:08:09.527Z,0
2017-03-25T04:09:09.842Z,0
2017-03-25T04:11:09.877Z,0
2017-03-25T04:12:09.903Z,0
2017-03-25T04:13:09.916Z,0
2017-03-25T04:14:24.548Z,0
2017-03-25T04:16:24.633Z,0
2017-03-25T04:17:09.992Z,0
2017-03-25T04:18:10.004Z,0
2017-03-25T04:19:10.025Z,0
2017-03-25T04:21:10.056Z,0
2017-03-25T04:22:24.685Z,0
2017-03-25T04:23:10.095Z,0
2017-03-25T04:24:10.106Z,0
2017-03-25T04:26:10.134Z,0
2017-03-25T04:27:10.163Z,0
2017-03-25T04:28:10.173Z,0
2017-03-25T04:29:10.196Z,0
2017-03-25T04:30:09.297Z,0
2017-03-25T04:31:10.224Z,0
2017-03-25T04:32:24.855Z,0
2017-03-25T04:33:24.878Z,0
2017-03-25T04:34:24.590Z,0
2017-03-25T04:35:10.443Z,0
2017-03-25T04:36:10.008Z,0
2017-03-25T04:37:10.025Z,0
2017-03-25T04:38:24.969Z,0
2017-03-25T04:39:10.362Z,0
2017-03-25T04:42:10.108Z,0
2017-03-25T04:43:10.434Z,0
2017-03-25T04:44:10.458Z,0
2017-03-25T04:45:25.083Z,0
2017-03-25T04:46:10.482Z,0
2017-03-25T04:47:10.505Z,0
2017-03-25T04:48:10.520Z,0
2017-03-25T04:49:10.535Z,0
2017-03-25T04:50:25.163Z,0
2017-03-25T04:51:10.625Z,0
2017-03-25T04:52:10.635Z,0
2017-03-25T04:53:10.604Z,0
2017-03-25T04:54:25.238Z,0
2017-03-25T04:55:10.637Z,0
2017-03-25T04:56:10.673Z,0
2017-03-25T04:57:10.674Z,0
2017-03-25T04:58:10.388Z,0
2017-03-25T04:59:10.713Z,0
2017-03-25T05:00:10.731Z,0
2017-03-25T05:01:10.741Z,0
2017-03-25T05:02:10.758Z,0
2017-03-25T05:03:25.397Z,0
2017-03-25T05:04:25.406Z,5
2017-03-25T05:05:10.853Z,5
2017-03-25T05:06:25.481Z,5
2017-03-25T05:07:10.541Z,5
2017-03-25T05:08:10.864Z,5
2017-03-25T05:09:25.498Z,5
2017-03-25T05:10:10.592Z,5
2017-03-25T05:11:10.911Z,5
2017-03-25T05:12:10.932Z,10
2017-03-25T05:13:10.949Z,10
2017-03-25T05:14:10.966Z,10
2017-03-25T05:15:10.979Z,10
2017-03-25T05:16:11.000Z,10
2017-03-25T05:17:11.018Z,15
2017-03-25T05:18:11.037Z,15
2017-03-25T05:19:11.057Z,15
2017-03-25T05:20:25.681Z,15
2017-03-25T05:21:25.747Z,15
2017-03-25T05:22:11.099Z,15
2017-03-25T05:23:11.125Z,20
2017-03-25T05:24:11.139Z,20
2017-03-25T05:25:11.154Z,20
2017-03-25T05:26:11.185Z,20
2017-03-25T05:27:10.895Z,20
2017-03-25T05:28:11.209Z,20
2017-03-25T05:29:11.229Z,20
2017-03-25T05:30:10.939Z,20
2017-03-25T05:31:11.266Z,20
2017-03-25T05:32:25.891Z,25
2017-03-25T05:33:11.296Z,25
2017-03-25T05:34:11.008Z,25
2017-03-25T05:35:11.635Z,25
2017-03-25T05:36:25.963Z,25
2017-03-25T05:37:25.977Z,25
2017-03-25T05:38:11.381Z,25
2017-03-25T05:39:11.453Z,25
2017-03-25T05:40:26.028Z,30
2017-03-25T05:41:26.051Z,30
2017-03-25T05:42:11.460Z,30
2017-03-25T05:43:11.470Z,30
2017-03-25T05:44:11.485Z,30
2017-03-25T05:45:11.522Z,30
2017-03-25T05:46:11.221Z,30
2017-03-25T05:47:11.540Z,30
2017-03-25T05:48:26.172Z,35
2017-03-25T05:49:11.574Z,35
2017-03-25T05:50:11.591Z,35
2017-03-25T05:51:11.611Z,35
2017-03-25T05:52:11.319Z,35
2017-03-25T05:53:26.260Z,35
2017-03-25T05:54:11.662Z,35
2017-03-25T05:55:26.293Z,40
2017-03-25T05:58:11.739Z,40
2017-03-25T05:59:11.753Z,40
2017-03-25T06:00:11.771Z,40
2017-03-25T06:01:11.782Z,45
2017-03-25T06:02:11.802Z,45
2017-03-25T06:03:11.820Z,50
2017-03-25T06:04:11.841Z,50
2017-03-25T06:05:11.857Z,55
2017-03-25T06:06:11.873Z,60
2017-03-25T06:07:11.893Z,60
2017-03-25T06:08:26.527Z,65
2017-03-25T06:09:11.946Z,70
2017-03-25T06:10:11.950Z,75
2017-03-25T06:11:11.963Z,75
2017-03-25T06:12:11.683Z,80
2017-03-25T06:13:26.621Z,85
2017-03-25T06:14:11.733Z,85
2017-03-25T06:15:12.037Z,85
2017-03-25T06:16:12.056Z,85
2017-03-25T06:17:12.073Z,85
2017-03-25T06:18:12.094Z,90
2017-03-25T06:19:12.113Z,90
2017-03-25T06:20:26.743Z,90
2017-03-25T06:21:12.144Z,90
2017-03-25T06:22:12.163Z,95
2017-03-25T06:23:12.183Z,95
2017-03-25T06:24:12.201Z,100
2017-03-25T06:25:12.217Z,110
2017-03-25T06:26:12.241Z,115
2017-03-25T06:27:12.257Z,130
2017-03-25T06:28:12.276Z,135
2017-03-25T06:29:26.908Z,140
2017-03-25T06:30:12.305Z,145
2017-03-25T06:31:12.335Z,165
2017-03-25T06:32:12.051Z,175
2017-03-25T06:33:12.420Z,195
2017-03-25T06:34:12.389Z,195
2017-03-25T06:35:12.409Z,185
2017-03-25T06:36:12.425Z,180
2017-03-25T06:37:27.057Z,200
2017-03-25T06:38:26.778Z,210
2017-03-25T06:39:41.713Z,210
2017-03-25T06:41:26.829Z,230
2017-03-25T06:42:12.543Z,215
2017-03-25T06:43:12.561Z,195
2017-03-25T06:44:27.199Z,185
2017-03-25T06:45:12.596Z,170
2017-03-25T06:46:12.317Z,175
2017-03-25T06:48:12.357Z,165
2017-03-25T06:49:12.681Z,160
2017-03-25T06:50:12.694Z,155
2017-03-25T06:51:12.733Z,155
2017-03-25T06:52:12.433Z,155
2017-03-25T06:53:12.760Z,155
2017-03-25T06:54:12.785Z,155
2017-03-25T06:55:12.798Z,155
2017-03-25T06:56:13.270Z,160
2017-03-25T06:57:12.838Z,155
2017-03-25T06:58:12.857Z,160
2017-03-25T06:59:27.506Z,160
2017-03-25T07:00:12.611Z,160
2017-03-25T07:01:27.527Z,165
2017-03-25T07:02:12.936Z,165
2017-03-25T07:03:13.262Z,165
2017-03-25T07:04:12.678Z,165
2017-03-25T07:05:12.997Z,170
2017-03-25T07:06:27.632Z,170
2017-03-25T07:07:13.039Z,185
2017-03-25T07:08:27.673Z,215
2017-03-25T07:09:27.700Z,225
2017-03-25T07:11:13.121Z,205
2017-03-25T07:12:27.753Z,210
2017-03-25T07:13:27.776Z,230
2017-03-25T07:14:13.178Z,215
2017-03-25T07:15:12.889Z,230
2017-03-25T07:16:27.838Z,270
2017-03-25T07:17:13.238Z,310
2017-03-25T07:18:12.957Z,335
2017-03-25T07:19:12.982Z,285
2017-03-25T07:21:13.318Z,435
2017-03-25T07:22:13.343Z,415
2017-03-25T07:23:13.373Z,470
2017-03-25T07:24:13.388Z,470
2017-03-25T07:25:13.406Z,460
2017-03-25T07:26:28.045Z,430
2017-03-25T07:27:27.759Z,420
2017-03-25T07:29:13.499Z,475
2017-03-25T07:30:13.211Z,490
2017-03-25T07:31:13.533Z,400
2017-03-25T07:32:28.175Z,315
2017-03-25T07:33:13.584Z,295
2017-03-25T07:34:13.300Z,275
2017-03-25T07:35:13.625Z,260
2017-03-25T07:36:13.345Z,245
2017-03-25T07:37:13.366Z,230
2017-03-25T07:38:13.690Z,220
2017-03-25T07:39:13.415Z,220
2017-03-25T07:40:13.428Z,215
2017-03-25T07:41:13.452Z,215
2017-03-25T07:42:13.475Z,205
2017-03-25T07:43:28.420Z,200
2017-03-25T07:44:13.522Z,195
2017-03-25T07:45:13.544Z,200
2017-03-25T07:46:13.561Z,195
2017-03-25T07:47:13.913Z,195
2017-03-25T07:48:28.530Z,190
2017-03-25T07:49:13.934Z,185
2017-03-25T07:50:13.954Z,185
2017-03-25T07:51:13.982Z,180
2017-03-25T07:52:13.997Z,185
2017-03-25T07:53:14.069Z,185
2017-03-25T07:54:14.062Z,190
2017-03-25T07:55:14.067Z,190
2017-03-25T07:56:14.091Z,190
2017-03-25T07:57:14.111Z,190
2017-03-25T07:58:28.752Z,200
2017-03-25T07:59:14.157Z,200
2017-03-25T08:00:14.179Z,205
2017-03-25T08:01:43.124Z,210
2017-03-25T08:03:14.247Z,220
2017-03-25T08:04:28.882Z,235
2017-03-25T08:05:14.292Z,245
2017-03-25T08:07:14.334Z,270
2017-03-25T08:08:14.048Z,290
2017-03-25T08:09:14.374Z,285
2017-03-25T08:10:14.393Z,270
2017-03-25T08:11:29.040Z,265
2017-03-25T08:12:14.139Z,275
2017-03-25T08:13:14.464Z,295
2017-03-25T08:14:14.484Z,335
2017-03-25T08:15:14.504Z,335
2017-03-25T08:16:28.839Z,290
2017-03-25T08:17:14.554Z,255
2017-03-25T08:18:14.574Z,255
2017-03-25T08:19:28.915Z,255
2017-03-25T08:21:14.681Z,225
2017-03-25T08:22:14.660Z,215
2017-03-25T08:23:14.689Z,215
2017-03-25T08:24:29.326Z,205
2017-03-25T08:26:14.751Z,185
2017-03-25T08:27:29.389Z,180
2017-03-25T08:28:14.797Z,180
2017-03-25T08:29:29.438Z,180
2017-03-25T08:30:29.461Z,180
2017-03-25T08:31:29.482Z,175
2017-03-25T08:32:14.881Z,175
2017-03-25T08:33:14.910Z,160
2017-03-25T08:34:14.930Z,155
2017-03-25T08:35:14.956Z,155
2017-03-25T08:36:14.669Z,155
2017-03-25T08:37:14.996Z,150
2017-03-25T08:38:14.711Z,150
2017-03-25T08:39:14.740Z,150
2017-03-25T08:40:15.061Z,150
2017-03-25T08:41:29.750Z,155
2017-03-25T08:42:15.113Z,155
2017-03-25T08:43:15.284Z,165
2017-03-25T08:44:29.933Z,175
2017-03-25T08:45:15.172Z,180
2017-03-25T08:46:15.203Z,180
2017-03-25T08:47:15.220Z,180
2017-03-25T08:48:15.241Z,185
2017-03-25T08:50:14.981Z,185
2017-03-25T08:51:29.930Z,185
2017-03-25T08:53:30.000Z,180
2017-03-25T08:54:15.378Z,175
2017-03-25T08:56:15.421Z,175
2017-03-25T08:57:15.446Z,180
2017-03-25T08:58:15.478Z,185
2017-03-25T08:59:15.497Z,195
2017-03-25T09:00:15.201Z,210
2017-03-25T09:01:30.142Z,220
2017-03-25T09:02:15.245Z,225
2017-03-25T09:03:15.577Z,230
2017-03-25T09:04:15.297Z,225
2017-03-25T09:05:44.846Z,230
2017-03-25T09:06:15.639Z,230
2017-03-25T09:07:44.898Z,230
2017-03-25T09:08:15.690Z,235
2017-03-25T09:09:15.704Z,235
2017-03-25T09:11:15.750Z,235
2017-03-25T09:14:15.819Z,230
2017-03-25T09:15:15.844Z,215
2017-03-25T09:16:15.864Z,215
2017-03-25T09:17:15.886Z,215
2017-03-25T09:18:15.920Z,215
2017-03-25T09:19:15.941Z,215
2017-03-25T09:20:30.572Z,215
2017-03-25T09:21:15.976Z,225
2017-03-25T09:23:30.640Z,265
2017-03-25T09:24:16.049Z,265
2017-03-25T09:26:16.091Z,305
2017-03-25T09:27:16.119Z,295
2017-03-25T09:28:15.838Z,345
2017-03-25T09:29:16.160Z,320
2017-03-25T09:30:16.181Z,335
2017-03-25T09:31:16.201Z,300
2017-03-25T09:32:16.225Z,300
2017-03-25T09:33:16.256Z,330
2017-03-25T09:34:16.284Z,315
2017-03-25T09:35:16.345Z,320
2017-03-25T09:36:45.245Z,295
2017-03-25T09:37:16.343Z,285
2017-03-25T09:38:16.071Z,280
2017-03-25T09:39:30.954Z,280
2017-03-25T09:40:16.108Z,290
2017-03-25T09:41:16.436Z,310
2017-03-25T09:42:16.465Z,375
2017-03-25T09:43:16.481Z,330
2017-03-25T09:44:16.508Z,325
2017-03-25T09:45:16.526Z,315
2017-03-25T09:46:16.549Z,320
2017-03-25T09:47:16.875Z,305
2017-03-25T09:48:16.301Z,285
2017-03-25T09:49:45.857Z,275
2017-03-25T09:50:16.646Z,305
2017-03-25T09:52:16.693Z,265
2017-03-25T09:53:16.720Z,275
2017-03-25T09:54:31.363Z,280
2017-03-25T09:55:16.769Z,310
2017-03-25T09:56:16.787Z,290
2017-03-25T09:57:16.512Z,300
2017-03-25T09:58:16.849Z,280
2017-03-25T09:59:16.866Z,290
2017-03-25T10:01:31.527Z,280
2017-03-25T10:02:16.629Z,280
2017-03-25T10:03:17.008Z,280
2017-03-25T10:04:31.601Z,285
2017-03-25T10:05:17.012Z,275
2017-03-25T10:06:16.725Z,275
2017-03-25T10:07:31.688Z,285
2017-03-25T10:08:16.779Z,290
2017-03-25T10:09:16.803Z,285
2017-03-25T10:10:17.129Z,290
2017-03-25T10:12:16.869Z,275
2017-03-25T10:13:16.899Z,280
2017-03-25T10:14:16.921Z,280
2017-03-25T10:15:16.943Z,285
2017-03-25T10:16:16.970Z,280
2017-03-25T10:17:16.993Z,275
2017-03-25T10:18:17.021Z,275
2017-03-25T10:19:17.344Z,245
2017-03-25T10:20:17.369Z,275
2017-03-25T10:21:32.014Z,275
2017-03-25T10:22:17.417Z,280
2017-03-25T10:23:17.451Z,295
2017-03-25T10:25:17.491Z,300
2017-03-25T10:26:32.146Z,300
2017-03-25T10:28:17.574Z,310
2017-03-25T10:29:17.593Z,310
2017-03-25T10:31:17.640Z,295
2017-03-25T10:32:17.666Z,295
2017-03-25T10:33:32.314Z,295
2017-03-25T10:34:17.718Z,290
2017-03-25T10:35:32.049Z,290
2017-03-25T10:36:17.760Z,285
2017-03-25T10:37:17.481Z,290
2017-03-25T10:38:17.510Z,285
2017-03-25T10:39:32.454Z,285
2017-03-25T10:40:17.611Z,280
2017-03-25T10:43:18.086Z,275
2017-03-25T10:44:17.675Z,270
2017-03-25T10:45:17.984Z,270
2017-03-25T10:46:17.749Z,265
2017-03-25T10:47:32.652Z,190
2017-03-25T10:48:18.057Z,200
2017-03-25T10:49:32.697Z,205
2017-03-25T10:50:18.554Z,200
2017-03-25T10:51:17.524Z,225
2017-03-25T10:52:18.155Z,255
2017-03-25T10:53:17.580Z,255
2017-03-25T10:54:32.818Z,255
2017-03-25T10:55:18.325Z,250
2017-03-25T10:57:32.891Z,245
2017-03-25T10:58:32.918Z,245
2017-03-25T10:59:18.364Z,240
2017-03-25T11:00:18.344Z,235
2017-03-25T11:01:18.368Z,240
2017-03-25T11:02:18.401Z,235
2017-03-25T11:03:18.426Z,230
2017-03-25T11:04:33.060Z,225
2017-03-25T11:05:18.478Z,225
2017-03-25T11:06:18.487Z,210
2017-03-25T11:07:33.138Z,215
2017-03-25T11:08:18.538Z,210
2017-03-25T11:09:32.879Z,210
2017-03-25T11:10:33.210Z,210
2017-03-25T11:11:47.538Z,210
2017-03-25T11:12:18.643Z,205
2017-03-25T11:13:18.718Z,205
2017-03-25T11:14:33.302Z,200
2017-03-25T11:15:18.710Z,200
2017-03-25T11:16:18.735Z,205
2017-03-25T11:17:18.452Z,200
2017-03-25T11:18:18.486Z,200
2017-03-25T11:19:18.809Z,200
2017-03-25T11:20:18.828Z,200
2017-03-25T11:21:18.853Z,200
2017-03-25T11:22:18.876Z,195
2017-03-25T11:24:33.249Z,190
2017-03-25T11:25:18.950Z,185
2017-03-25T11:26:18.968Z,185
2017-03-25T11:27:33.622Z,185
2017-03-25T11:28:19.024Z,190
2017-03-25T11:29:33.667Z,185
2017-03-25T11:30:19.071Z,185
2017-03-25T11:31:19.088Z,185
2017-03-25T11:32:33.733Z,185
2017-03-25T11:33:19.140Z,185
2017-03-25T11:34:18.862Z,190
2017-03-25T11:35:19.190Z,190
2017-03-25T11:36:18.605Z,190
2017-03-25T11:37:19.235Z,195
2017-03-25T11:38:19.260Z,190
2017-03-25T11:39:33.900Z,190
2017-03-25T11:40:19.300Z,185
2017-03-25T11:41:19.030Z,185
2017-03-25T11:42:19.351Z,185
2017-03-25T11:43:19.382Z,185
2017-03-25T11:44:19.405Z,185
2017-03-25T11:45:19.421Z,185
2017-03-25T11:46:19.444Z,185
2017-03-25T11:47:19.479Z,190
2017-03-25T11:48:19.501Z,185
2017-03-25T11:49:19.521Z,180
2017-03-25T11:50:19.585Z,180
2017-03-25T11:51:19.259Z,180
2017-03-25T11:52:34.205Z,180
2017-03-25T11:53:19.616Z,180
2017-03-25T11:54:34.259Z,180
2017-03-25T11:55:34.275Z,185
2017-03-25T11:56:34.298Z,185
2017-03-25T11:57:48.937Z,190
2017-03-25T11:58:19.730Z,185
2017-03-25T12:00:19.820Z,185
2017-03-25T12:01:34.414Z,180
2017-03-25T12:03:34.471Z,170
2017-03-25T12:04:19.872Z,175
2017-03-25T12:05:19.912Z,180
2017-03-25T12:06:19.919Z,180
2017-03-25T12:07:19.949Z,175
2017-03-25T12:08:19.673Z,175
2017-03-25T12:09:19.993Z,170
2017-03-25T12:10:20.010Z,170
2017-03-25T12:11:20.032Z,175
2017-03-25T12:12:20.057Z,170
2017-03-25T12:13:34.701Z,165
2017-03-25T12:14:20.114Z,165
2017-03-25T12:15:20.125Z,170
2017-03-25T12:16:20.157Z,170
2017-03-25T12:17:34.789Z,175
2017-03-25T12:18:20.198Z,175
2017-03-25T12:19:20.231Z,180
2017-03-25T12:20:19.942Z,180
2017-03-25T12:21:20.269Z,180
2017-03-25T12:23:20.016Z,180
2017-03-25T12:24:20.346Z,155
2017-03-25T12:26:20.385Z,140
2017-03-25T12:27:20.412Z,140
2017-03-25T12:28:20.437Z,145
2017-03-25T12:29:20.461Z,145
2017-03-25T12:30:20.498Z,145
2017-03-25T12:31:20.506Z,145
2017-03-25T12:32:20.534Z,145
2017-03-25T12:33:35.171Z,145
2017-03-25T12:34:20.581Z,145
2017-03-25T12:35:20.600Z,155
2017-03-25T12:36:20.617Z,160
2017-03-25T12:37:20.642Z,160
2017-03-25T12:38:20.669Z,165
2017-03-25T12:39:35.305Z,185
2017-03-25T12:40:20.752Z,180
2017-03-25T12:41:20.736Z,180
2017-03-25T12:42:20.760Z,180
2017-03-25T12:43:20.478Z,175
2017-03-25T12:44:20.808Z,175
2017-03-25T12:45:20.522Z,185
2017-03-25T12:46:20.858Z,195
2017-03-25T12:47:20.876Z,200
2017-03-25T12:48:35.540Z,200
2017-03-25T12:49:35.543Z,200
2017-03-25T12:50:20.642Z,200
2017-03-25T12:51:35.589Z,200
2017-03-25T12:52:20.988Z,200
2017-03-25T12:53:21.020Z,195
2017-03-25T12:54:21.051Z,190
2017-03-25T12:55:35.680Z,185
2017-03-25T12:56:35.702Z,180
2017-03-25T12:57:21.108Z,180
2017-03-25T12:58:21.133Z,180
2017-03-25T12:59:21.155Z,175
2017-03-25T13:00:35.797Z,175
2017-03-25T13:01:50.433Z,165
2017-03-25T13:03:21.257Z,170
2017-03-25T13:04:35.889Z,170
2017-03-25T13:05:21.304Z,175
2017-03-25T13:06:21.325Z,170
2017-03-25T13:07:21.345Z,180
2017-03-25T13:08:21.372Z,170
2017-03-25T13:09:21.387Z,165
2017-03-25T13:10:21.111Z,175
2017-03-25T13:12:36.083Z,160
2017-03-25T13:13:36.100Z,165
2017-03-25T13:14:21.516Z,170
2017-03-25T13:16:36.172Z,155
2017-03-25T13:17:50.807Z,155
2017-03-25T13:18:21.604Z,160
2017-03-25T13:19:21.627Z,155
2017-03-25T13:20:21.652Z,155
2017-03-25T13:21:36.299Z,150
2017-03-25T13:22:21.691Z,155
2017-03-25T13:23:21.722Z,160
2017-03-25T13:24:21.747Z,160
2017-03-25T13:25:21.764Z,165
2017-03-25T13:26:21.484Z,170
2017-03-25T13:27:21.811Z,175
2017-03-25T13:28:21.834Z,165
2017-03-25T13:29:36.470Z,165
2017-03-25T13:30:36.498Z,165
2017-03-25T13:31:21.898Z,160
2017-03-25T13:32:21.923Z,160
2017-03-25T13:33:21.960Z,160
2017-03-25T13:34:21.370Z,160
2017-03-25T13:35:21.999Z,160
2017-03-25T13:37:22.045Z,165
2017-03-25T13:38:22.069Z,160
2017-03-25T13:39:21.789Z,165
2017-03-25T13:40:36.730Z,160
2017-03-25T13:41:22.130Z,155
2017-03-25T13:42:21.855Z,155
2017-03-25T13:43:21.879Z,150
2017-03-25T13:44:22.210Z,150
2017-03-25T13:45:22.228Z,140
2017-03-25T13:46:22.248Z,150
2017-03-25T13:47:36.891Z,155
2017-03-25T13:48:36.913Z,160
2017-03-25T13:49:22.325Z,155
2017-03-25T13:50:22.346Z,160
2017-03-25T13:51:22.363Z,160
2017-03-25T13:52:37.006Z,160
2017-03-25T13:53:22.419Z,165
2017-03-25T13:54:22.440Z,160
2017-03-25T13:56:22.480Z,165
2017-03-25T13:57:22.504Z,160
2017-03-25T13:58:22.528Z,160
2017-03-25T13:59:22.559Z,155
2017-03-25T14:00:22.572Z,160
2017-03-25T14:01:22.606Z,160
2017-03-25T14:02:51.854Z,160
2017-03-25T14:03:37.269Z,160
2017-03-25T14:04:22.400Z,155
2017-03-25T14:05:37.305Z,155
2017-03-25T14:06:22.405Z,155
2017-03-25T14:07:22.436Z,155
2017-03-25T14:08:37.374Z,150
2017-03-25T14:09:22.484Z,150
2017-03-25T14:10:22.802Z,155
2017-03-25T14:11:22.832Z,150
2017-03-25T14:12:22.854Z,150
2017-03-25T14:13:22.575Z,150
2017-03-25T14:14:37.517Z,150
2017-03-25T14:15:37.536Z,150
2017-03-25T14:16:22.951Z,150
2017-03-25T14:17:23.167Z,155
2017-03-25T14:18:37.607Z,145
2017-03-25T14:19:23.013Z,145
2017-03-25T14:20:23.040Z,145
2017-03-25T14:21:37.675Z,150
2017-03-25T14:22:23.084Z,150
2017-03-25T14:23:23.116Z,150
2017-03-25T14:24:37.746Z,150
2017-03-25T14:25:23.149Z,150
2017-03-25T14:26:23.173Z,150
2017-03-25T14:28:23.221Z,150
2017-03-25T14:29:23.244Z,145
2017-03-25T14:30:23.264Z,150
2017-03-25T14:31:23.287Z,145
2017-03-25T14:32:23.010Z,145
2017-03-25T14:33:23.340Z,145
2017-03-25T14:34:23.361Z,140
2017-03-25T14:35:23.382Z,140
2017-03-25T14:36:23.401Z,145
2017-03-25T14:37:23.431Z,140
2017-03-25T14:38:23.457Z,140
2017-03-25T14:39:38.095Z,135
2017-03-25T14:40:23.498Z,135
2017-03-25T14:41:23.527Z,130
2017-03-25T14:42:23.550Z,130
2017-03-25T14:43:23.569Z,130
2017-03-25T14:44:38.209Z,130
2017-03-25T14:45:23.609Z,130
2017-03-25T14:46:23.634Z,130
2017-03-25T14:47:23.663Z,130
2017-03-25T14:48:23.701Z,130
2017-03-25T14:49:52.939Z,135
2017-03-25T14:50:23.733Z,130
2017-03-25T14:51:23.444Z,130
2017-03-25T14:52:23.469Z,130
2017-03-25T14:53:23.501Z,130
2017-03-25T14:54:23.824Z,125
2017-03-25T14:55:23.851Z,125
2017-03-25T14:56:23.873Z,125
2017-03-25T14:57:23.890Z,130
2017-03-25T14:58:23.917Z,130
2017-03-25T14:59:23.946Z,130
2017-03-25T15:00:23.963Z,130
2017-03-25T15:01:23.983Z,130
2017-03-25T15:02:24.008Z,130
2017-03-25T15:03:23.738Z,130
2017-03-25T15:04:38.668Z,125
2017-03-25T15:05:38.689Z,125
2017-03-25T15:06:24.095Z,125
2017-03-25T15:08:23.837Z,125
2017-03-25T15:09:23.861Z,125
2017-03-25T15:10:24.187Z,125
2017-03-25T15:11:38.824Z,125
2017-03-25T15:12:24.231Z,125
2017-03-25T15:13:24.255Z,125
2017-03-25T15:14:23.981Z,125